NY/NJ Local METAR Reports

 

KNYC - NYC/Central Park, NY, USA
Distance from Hoboken: NE 4mi, 7km
Updated: 05/22/2018 12:51am
Clear
Clear
 Wind from calm
Wind: Calm
Temperature: 64°F , 18°C
Dew Point: 46°F , 8°C
Humidity: 52%
Barometer: 30.19 inHg , 1022.4 hPa
Clouds: Clear
Visibility: 10 miles , 16 km
2018/05/22 04:51 KNYC 220451Z AUTO 00000KT 10SM CLR 18/08 A3019 RMK AO2 SLP213 T01780078 402610144
KEWR - Newark, NJ, USA
Distance from Hoboken: WSW 8mi, 13km
Updated: 05/22/2018 12:51am
Mostly cloudy
Mostly cloudy
 Wind from SW
Wind: SW 6 mph , 9 km/h
Temperature: 61°F , 16°C
Dew Point: 48°F , 9°C
Humidity: 63%
Barometer: 30.16 inHg , 1021.3 hPa
Clouds: Mostly cloudy
Visibility: 10 miles , 16 km
Cloud details: Mostly cloudy 24000 ft
2018/05/22 04:51 KEWR 220451Z 22005KT 10SM BKN240 16/09 A3016 RMK AO2 SLP212 T01610089 402560144
 
KLGA - NYC/La Guardia, NY, USA
Distance from Hoboken: ENE 8mi, 13km
Updated: 05/22/2018 12:51am
Mostly cloudy
Mostly cloudy
 Wind from SSW
Wind: SSW 5 mph , 7 km/h
Temperature: 66°F , 19°C
Dew Point: 45°F , 7°C
Humidity: 46%
Barometer: 30.16 inHg , 1021.3 hPa
Clouds: Mostly cloudy
Visibility: 10 miles , 16 km
Cloud details: Mostly cloudy 25000 ft
2018/05/22 04:51 KLGA 220451Z 21004KT 10SM BKN250 19/07 A3016 RMK AO2 SLP211 T01890067 402610156
KTEB - Teterboro, NJ, USA
Distance from Hoboken: N 9mi, 14km
Updated: 05/22/2018 12:51am
Clear
Clear
 Wind from calm
Wind: Calm
Temperature: 63°F , 17°C
Dew Point: 50°F , 10°C
Humidity: 64%
Barometer: 30.15 inHg , 1021 hPa
Clouds: Clear
Visibility: 10 miles , 16 km
2018/05/22 04:51 KTEB 220451Z 00000KT 10SM CLR 17/10 A3015 RMK AO2 SLP209 T01720100 402890133
 
KJFK - NYC/Jfk Arpt, NY, USA
Distance from Hoboken: ESE 16mi, 25km
Updated: 05/22/2018 12:51am
Mostly cloudy
Mostly cloudy
 Wind from SW
Wind: SW 6 mph , 9 km/h
Temperature: 57°F , 14°C
Dew Point: 52°F , 11°C
Humidity: 82%
Barometer: 30.17 inHg , 1021.7 hPa
Clouds: Mostly cloudy
Visibility: 10 miles , 16 km
Cloud details: Mostly cloudy 25000 ft
2018/05/22 04:51 KJFK 220451Z 22005KT 10SM BKN250 14/11 A3017 RMK AO2 SLP217 T01390111 402280139
KCDW - Caldwell, NJ, USA
Distance from Hoboken: NW 16mi, 26km
Updated: 05/22/2018 12:53am
Clear
Clear
 Wind from calm
Wind: Calm
Temperature: 61°F , 16°C
Dew Point: 52°F , 11°C
Humidity: 72%
Barometer: 30.16 inHg , 1021.3 hPa
Clouds: Clear
Visibility: 10 miles , 16 km
2018/05/22 04:53 KCDW 220453Z AUTO 00000KT 10SM CLR 16/11 A3016 RMK AO2 SLP217 T01560111 402670111
 
KMMU - Morristown Muni, NJ, USA
Distance from Hoboken: W 20mi, 33km
Updated: 05/22/2018 1:30am
Clear
Clear
 Wind from calm
Wind: Calm
Temperature: 57°F , 14°C
Dew Point: 55°F , 13°C
Humidity: 94%
Barometer: 30.15 inHg , 1021 hPa
Clouds: Clear
Visibility: 10 miles , 16 km
2018/05/22 05:30 KMMU 220530Z AUTO 00000KT 10SM CLR 14/13 A3015 RMK AO2
KHPN - White Plains, NY, USA
Distance from Hoboken: NE 28mi, 46km
Updated: 05/22/2018 12:56am
Clear
Clear
 Wind from calm
Wind: Calm
Temperature: 55°F , 13°C
Dew Point: 48°F , 9°C
Humidity: 77%
Barometer: 30.16 inHg , 1021.3 hPa
Clouds: Clear
Visibility: 10 miles , 16 km
2018/05/22 04:56 KHPN 220456Z 00000KT 10SM CLR 13/09 A3016 RMK AO2 SLP209 T01280094 402500100
 
KFRG - Farmingdale, NY, USA
Distance from Hoboken: E 32mi, 52km
Updated: 05/22/2018 12:53am
Clear
Clear
 Wind from calm
Wind: Calm
Temperature: 57°F , 14°C
Dew Point: 52°F , 11°C
Humidity: 82%
Barometer: 30.17 inHg , 1021.7 hPa
Clouds: Clear
Visibility: 10 miles , 16 km
2018/05/22 04:53 KFRG 220453Z AUTO 00000KT 10SM CLR 14/11 A3017 RMK AO2 SLP215 T01390106 402280128
KSMQ - Somerville, NJ, USA
Distance from Hoboken: WSW 34mi, 55km
Updated: 05/22/2018 12:53am
Clear
Clear
 Wind from calm
Wind: Calm
Temperature: 55°F , 13°C
Dew Point: 54°F , 12°C
Humidity: 94%
Barometer: 30.14 inHg , 1020.7 hPa
Clouds: Clear
Visibility: 10 miles , 16 km
2018/05/22 04:53 KSMQ 220453Z AUTO 00000KT 10SM CLR 13/12 A3014 RMK AO2 SLP207 T01330122 402670100
 
KBLM - Belmar/Farmdale, NJ, USA
Distance from Hoboken: S 40mi, 64km
Updated: 05/22/2018 12:56am
Clear
Clear
 Wind from WSW
Wind: WSW 5 mph , 7 km/h
Temperature: 55°F , 13°C
Dew Point: 50°F , 10°C
Humidity: 82%
Barometer: 30.17 inHg , 1021.7 hPa
Clouds: Clear
Visibility: 10 miles , 16 km
2018/05/22 04:56 KBLM 220456Z AUTO 24004KT 10SM CLR 13/10 A3017 RMK AO2 SLP221 T01280100 402170128
K12N - Andover, NJ, USA
Distance from Hoboken: WNW 41mi, 67km
Updated: 05/22/2018 12:54am

 Wind from calm
Wind: Calm
Temperature: 59°F , 15°C
Dew Point: 55°F , 13°C
Humidity: 88%
Barometer: 30.16 inHg , 1021.3 hPa
2018/05/22 04:54 K12N 220454Z AUTO 00000KT 15/13 A3016 RMK AO1 SLP207 T01500133 402610100
 
KFWN - Sussex, NJ, USA
Distance from Hoboken: NW 45mi, 72km
Updated: 05/22/2018 12:53am
Clear
Clear
 Wind from calm
Wind: Calm
Temperature: 55°F , 13°C
Dew Point: 54°F , 12°C
Humidity: 94%
Barometer: 30.15 inHg , 1021 hPa
Clouds: Clear
Visibility: 10 miles , 16 km
2018/05/22 04:53 KFWN 220453Z AUTO 00000KT 10SM CLR 13/12 A3015 RMK AO2 SLP209 T01330117 402610083
KISP - Islip, NY, USA
Distance from Hoboken: E 49mi, 79km
Updated: 05/22/2018 12:56am
Clear
Clear
 Wind from calm
Wind: Calm
Temperature: 57°F , 14°C
Dew Point: 50°F , 10°C
Humidity: 77%
Barometer: 30.16 inHg , 1021.3 hPa
Clouds: Clear
Visibility: 10 miles , 16 km
2018/05/22 04:56 KISP 220456Z AUTO 00000KT 10SM CLR 14/10 A3016 RMK AO2 SLP212 T01390100 402330128